Arkona, Germany

9:00 AM CEST on September 30, 2016 (GMT +0200)
Ostsee Wetterstation Klaarkiming | | Change Station

Elev 0 ft 54.62 °N, 13.37 °E | Updated 17 minutes ago

Clear
Clear
57.0 °F
Feels Like 57.0 °F
N
5.0
Wind Variable Wind from SW
Gusts 17.0 mph

Today
High -- | Low -- °F
--% Chance of Precip.
Yesterday
High -- | Low -- °F
Precip. -- in
Pressure 29.77 in
Visibility 6.2 miles
Clouds
Dew Point 54 °F
Humidity 90%
Rainfall 0.00 in
Snow Depth Not available.
7:07 AM 6:44 PM
Waning Crescent, 0% visible
METAR EKRN 300650Z AUTO 28017KT 9999NDV NCD 15/09 Q1008
Pressure 29.77 in
Visibility 6.2 miles
Clouds
Dew Point 54 °F
Humidity 90%
Rainfall 0.00 in
Snow Depth Not available.
7:07 AM 6:44 PM
Waning Crescent, 0% visible
METAR EKRN 300650Z AUTO 28017KT 9999NDV NCD 15/09 Q1008

10-Day Weather Forecast

×

Almanac

Astronomy

Sep. 30, 2016 Rise Set
Actual Time
Civil Twilight
Nautical Twilight
Astronomical Twilight
Moon
Length of Visible Light
Length of Day
Tomorrow will be .
, % of the Moon is Illuminated

Today's Extremes

Country Highs Country Lows

Community

WunderPhotos

Upload Photos

1,942,668 photos uploaded!

WunderBlog® & News

Nearby

Air Quality

  Air Quality AQ Index Pollutant
Not available.

Snow Depth

Station Depth Elevation

Earthquake Activity

City Distance Mag. Time & Date
Minimum magnitude displayed is 2.5.

Coastal Water Temperatures

Place Temperature

Stations

Nearby Weather Stations

Station Location Temp. Windchill Dew Point Humidity Wind Precip. Elev Updated Type